createdAt,value
2022-10-28T00:00:00.642Z,89.6
2022-10-28T00:01:00.796Z,89.6
2022-10-28T00:02:01.157Z,89.6
2022-10-28T00:03:01.180Z,89.5
2022-10-28T00:04:01.241Z,89.5
2022-10-28T00:05:00.409Z,89.6
2022-10-28T00:06:00.542Z,89.7
2022-10-28T00:07:00.675Z,89.6
2022-10-28T00:08:00.852Z,89.4
2022-10-28T00:09:00.979Z,89.4
2022-10-28T00:10:01.126Z,89.5
2022-10-28T00:11:00.271Z,89.7
2022-10-28T00:12:00.418Z,89.8
2022-10-28T00:13:00.576Z,89.8
2022-10-28T00:14:00.709Z,89.6
2022-10-28T00:15:00.850Z,89.6
2022-10-28T00:16:01.000Z,89.6
2022-10-28T00:17:01.139Z,89.6
2022-10-28T00:18:00.315Z,89.6
2022-10-28T00:19:00.448Z,89.7
2022-10-28T00:20:00.592Z,89.8
2022-10-28T00:21:00.756Z,89.9
2022-10-28T00:22:00.878Z,90
2022-10-28T00:23:01.031Z,90.2
2022-10-28T00:24:01.176Z,90.1
2022-10-28T00:25:00.333Z,90.1
2022-10-28T00:26:00.493Z,90
2022-10-28T00:27:00.620Z,89.8
2022-10-28T00:28:00.769Z,89.8
2022-10-28T00:29:00.948Z,89.8
2022-10-28T00:30:01.062Z,89.5
2022-10-28T00:31:01.213Z,89.4
2022-10-28T00:32:00.353Z,89.3
2022-10-28T00:33:00.489Z,89.2
2022-10-28T00:34:00.661Z,89
2022-10-28T00:35:00.798Z,88.9
2022-10-28T00:36:04.238Z,88.7
2022-10-28T00:37:01.089Z,88.5
2022-10-28T00:38:01.274Z,88.4
2022-10-28T00:39:00.388Z,88.2
2022-10-28T00:40:00.538Z,88.2
2022-10-28T00:41:00.685Z,88.2
2022-10-28T00:42:00.832Z,88.3
2022-10-28T00:43:01.005Z,88.5
2022-10-28T00:44:01.147Z,88.5
2022-10-28T00:45:00.306Z,88.5
2022-10-28T00:46:00.437Z,88.6
2022-10-28T00:47:00.594Z,88.7
2022-10-28T00:48:00.739Z,88.8
2022-10-28T00:49:00.885Z,88.9
2022-10-28T00:50:01.047Z,88.9
2022-10-28T00:51:01.162Z,89
2022-10-28T00:52:00.311Z,88.9
2022-10-28T00:53:00.461Z,88.8
2022-10-28T00:54:00.604Z,88.7
2022-10-28T00:55:00.776Z,88.7
2022-10-28T00:56:00.908Z,88.9
2022-10-28T00:57:01.059Z,89
2022-10-28T00:58:01.196Z,89
2022-10-28T00:59:00.351Z,89
2022-10-28T01:00:00.505Z,89.2
2022-10-28T01:01:00.632Z,89.3
2022-10-28T01:02:00.946Z,89.2
2022-10-28T01:03:00.925Z,89.2
2022-10-28T01:04:01.078Z,89.1
2022-10-28T01:05:01.243Z,89
2022-10-28T01:06:00.373Z,89
2022-10-28T01:07:00.524Z,88.9
2022-10-28T01:08:00.677Z,88.9
2022-10-28T01:09:00.825Z,88.9
2022-10-28T01:10:00.987Z,89
2022-10-28T01:11:01.135Z,89.1
2022-10-28T01:12:00.253Z,89
2022-10-28T01:13:00.391Z,88.9
2022-10-28T01:14:00.541Z,88.9
2022-10-28T01:15:00.691Z,88.9
2022-10-28T01:16:00.858Z,89
2022-10-28T01:17:00.991Z,89.2
2022-10-28T01:18:01.150Z,89.4
2022-10-28T01:19:00.288Z,89.5
2022-10-28T01:20:00.460Z,89.5
2022-10-28T01:21:00.608Z,89.5
2022-10-28T01:22:00.747Z,89.4
2022-10-28T01:23:00.894Z,89.4
2022-10-28T01:24:01.070Z,89.4
2022-10-28T01:25:01.191Z,89.5
2022-10-28T01:26:00.344Z,89.4
2022-10-28T01:27:00.492Z,89.4
2022-10-28T01:28:00.654Z,89.2
2022-10-28T01:29:00.808Z,89.1
2022-10-28T01:30:00.959Z,88.8
2022-10-28T01:31:01.098Z,88.5
2022-10-28T01:32:01.260Z,88.1
2022-10-28T01:33:00.385Z,87.6
2022-10-28T01:34:00.534Z,87.1
2022-10-28T01:35:00.700Z,86.7
2022-10-28T01:36:00.827Z,86.2
2022-10-28T01:37:00.988Z,85.8
2022-10-28T01:38:01.145Z,85.5
2022-10-28T01:39:00.281Z,85.2
2022-10-28T01:40:00.429Z,84.9
2022-10-28T01:41:00.574Z,84.6
2022-10-28T01:42:00.717Z,84.4
2022-10-28T01:43:00.864Z,84.2
2022-10-28T01:44:01.014Z,84.1
2022-10-28T01:45:01.182Z,83.9
2022-10-28T01:46:00.302Z,83.8
2022-10-28T01:47:00.449Z,83.7
2022-10-28T01:48:00.592Z,83.6
2022-10-28T01:49:00.767Z,83.6
2022-10-28T01:50:00.885Z,83.5
2022-10-28T01:51:01.034Z,83.3
2022-10-28T01:52:01.177Z,83.3
2022-10-28T01:53:00.334Z,83.3
2022-10-28T01:54:00.503Z,83.1
2022-10-28T01:55:00.626Z,83
2022-10-28T01:56:00.776Z,83
2022-10-28T01:57:00.927Z,83
2022-10-28T01:58:01.090Z,83
2022-10-28T01:59:01.256Z,82.8
2022-10-28T02:00:00.415Z,82.8
2022-10-28T02:01:00.708Z,82.8
2022-10-28T02:03:00.841Z,82.8
2022-10-28T02:04:01.016Z,82.7
2022-10-28T02:05:01.133Z,82.7
2022-10-28T02:06:00.291Z,82.7
2022-10-28T02:07:00.431Z,82.6
2022-10-28T02:08:00.585Z,82.6
2022-10-28T02:09:00.750Z,82.7
2022-10-28T02:10:00.882Z,82.7
2022-10-28T02:11:01.025Z,82.6
2022-10-28T02:12:01.153Z,82.6
2022-10-28T02:13:00.307Z,82.4
2022-10-28T02:14:00.497Z,82.3
2022-10-28T02:15:00.647Z,82.4
2022-10-28T02:16:00.768Z,82.4
2022-10-28T02:17:00.903Z,82.4
2022-10-28T02:18:01.057Z,82.5
2022-10-28T02:19:01.228Z,82.4
2022-10-28T02:20:00.348Z,82.4
2022-10-28T02:21:00.486Z,82.5
2022-10-28T02:22:00.638Z,82.4
2022-10-28T02:23:00.798Z,82.3
2022-10-28T02:24:00.968Z,82.2
2022-10-28T02:25:01.082Z,82.2
2022-10-28T02:26:01.239Z,82.3
2022-10-28T02:27:00.371Z,82.2
2022-10-28T02:28:00.561Z,82.2
2022-10-28T02:29:00.697Z,82.2
2022-10-28T02:30:00.843Z,82.3
2022-10-28T02:31:00.971Z,82.2
2022-10-28T02:32:01.129Z,82.3
2022-10-28T02:33:00.280Z,82.3
2022-10-28T02:34:00.436Z,82.3
2022-10-28T02:35:00.585Z,82.4
2022-10-28T02:36:00.714Z,82.4
2022-10-28T02:37:00.846Z,82.5
2022-10-28T02:38:01.007Z,82.5
2022-10-28T02:39:01.143Z,82.5
2022-10-28T02:40:00.323Z,82.5
2022-10-28T02:41:00.454Z,82.6
2022-10-28T02:42:00.600Z,82.6
2022-10-28T02:43:00.748Z,82.6
2022-10-28T02:44:00.901Z,82.6
2022-10-28T02:45:01.075Z,82.7
2022-10-28T02:46:01.198Z,82.8
2022-10-28T02:47:00.354Z,82.7
2022-10-28T02:48:00.491Z,82.6
2022-10-28T02:49:00.649Z,82.8
2022-10-28T02:50:00.815Z,82.7
2022-10-28T02:51:00.953Z,82.8
2022-10-28T02:52:01.095Z,82.9
2022-10-28T02:53:01.236Z,82.9
2022-10-28T02:54:00.394Z,82.9
2022-10-28T02:55:00.559Z,83
2022-10-28T02:56:00.699Z,82.9
2022-10-28T02:57:00.830Z,82.7
2022-10-28T02:58:00.978Z,82.6
2022-10-28T02:59:01.137Z,82.5
2022-10-28T03:00:00.298Z,82.4
2022-10-28T03:01:00.440Z,82.4
2022-10-28T03:02:00.660Z,82.5
2022-10-28T03:03:00.727Z,82.5
2022-10-28T03:04:00.860Z,82.6
2022-10-28T03:05:01.013Z,82.7
2022-10-28T03:06:01.157Z,82.7
2022-10-28T03:07:00.307Z,82.8
2022-10-28T03:08:00.473Z,82.8
2022-10-28T03:09:00.593Z,82.8
2022-10-28T03:10:00.741Z,82.8
2022-10-28T03:11:00.888Z,82.9
2022-10-28T03:12:01.124Z,82.9
2022-10-28T03:13:01.213Z,82.9
2022-10-28T03:14:00.338Z,83
2022-10-28T03:15:00.488Z,83.2
2022-10-28T03:16:00.626Z,83.3
2022-10-28T03:17:00.780Z,83.2
2022-10-28T03:18:00.945Z,83.2
2022-10-28T03:19:01.128Z,83.2
2022-10-28T03:20:01.213Z,83.3
2022-10-28T03:21:00.355Z,83.4
2022-10-28T03:22:00.499Z,83.4
2022-10-28T03:23:00.657Z,83.4
2022-10-28T03:24:00.778Z,83.6
2022-10-28T03:25:00.932Z,83.8
2022-10-28T03:26:01.088Z,84
2022-10-28T03:27:01.231Z,84.1
2022-10-28T03:28:00.405Z,84.3
2022-10-28T03:29:00.531Z,84.4
2022-10-28T03:30:00.673Z,84.7
2022-10-28T03:31:00.827Z,84.8
2022-10-28T03:32:00.965Z,84.8
2022-10-28T03:33:01.132Z,84.8
2022-10-28T03:34:00.264Z,84.8
2022-10-28T03:35:00.410Z,85
2022-10-28T03:36:00.566Z,85.1
2022-10-28T03:37:00.717Z,85.3
2022-10-28T03:38:00.893Z,85.2
2022-10-28T03:39:01.008Z,85.3
2022-10-28T03:40:01.162Z,85.4
2022-10-28T03:41:00.303Z,85.6
2022-10-28T03:42:00.453Z,85.6
2022-10-28T03:43:00.620Z,85.8
2022-10-28T03:44:00.772Z,85.9
2022-10-28T03:45:00.887Z,85.9
2022-10-28T03:46:01.037Z,86.1
2022-10-28T03:47:01.169Z,86.3
2022-10-28T03:48:00.319Z,86.5
2022-10-28T03:49:00.481Z,86.6
2022-10-28T03:50:00.629Z,86.7
2022-10-28T03:51:00.758Z,86.5
2022-10-28T03:52:00.912Z,86.6
2022-10-28T03:53:01.045Z,86.8
2022-10-28T03:54:01.192Z,87
2022-10-28T03:55:00.388Z,86.7
2022-10-28T03:56:00.483Z,86.7
2022-10-28T03:57:00.634Z,86.6
2022-10-28T03:58:00.784Z,86.5
2022-10-28T03:59:00.927Z,86.6
2022-10-28T04:00:01.098Z,86.6
2022-10-28T04:01:01.267Z,86.8
2022-10-28T04:02:00.512Z,87
2022-10-28T04:03:00.537Z,87.4
2022-10-28T04:04:00.678Z,87.3
2022-10-28T04:05:00.843Z,87.2
2022-10-28T04:06:00.992Z,87
2022-10-28T04:07:01.124Z,86.8
2022-10-28T04:08:00.271Z,86.6
2022-10-28T04:09:00.423Z,86.5
2022-10-28T04:10:00.567Z,86.3
2022-10-28T04:11:00.721Z,86.1
2022-10-28T04:12:00.932Z,86
2022-10-28T04:13:01.009Z,86
2022-10-28T04:14:01.170Z,85.9
2022-10-28T04:15:00.295Z,85.8
2022-10-28T04:16:00.444Z,85.7
2022-10-28T04:17:00.598Z,85.6
2022-10-28T04:18:00.749Z,85.4
2022-10-28T04:19:00.920Z,85.3
2022-10-28T04:20:01.042Z,85
2022-10-28T04:21:01.183Z,84.9
2022-10-28T04:22:00.321Z,84.8
2022-10-28T04:23:00.724Z,84.8
2022-10-28T04:24:00.624Z,84.8
2022-10-28T04:25:00.783Z,84.8
2022-10-28T04:26:00.901Z,84.8
2022-10-28T04:27:01.049Z,84.7
2022-10-28T04:28:01.195Z,84.7
2022-10-28T04:29:00.358Z,84.7
2022-10-28T04:30:00.499Z,84.7
2022-10-28T04:31:00.625Z,84.8
2022-10-28T04:32:00.782Z,84.7
2022-10-28T04:33:00.929Z,84.8
2022-10-28T04:34:01.082Z,84.8
2022-10-28T04:35:01.250Z,84.9
2022-10-28T04:36:00.374Z,84.9
2022-10-28T04:37:00.543Z,84.9
2022-10-28T04:38:00.678Z,85
2022-10-28T04:39:00.834Z,84.9
2022-10-28T04:40:00.999Z,85
2022-10-28T04:41:01.137Z,85.1
2022-10-28T04:42:00.269Z,85.1
2022-10-28T04:43:00.416Z,85.2
2022-10-28T04:44:00.559Z,85.2
2022-10-28T04:45:00.741Z,85.2
2022-10-28T04:46:00.854Z,85.3
2022-10-28T04:47:01.024Z,85.3
2022-10-28T04:48:01.156Z,85.4
2022-10-28T04:49:00.300Z,85.5
2022-10-28T04:50:00.472Z,85.5
2022-10-28T04:51:00.625Z,85.4
2022-10-28T04:52:00.755Z,85.5
2022-10-28T04:53:00.901Z,85.7
2022-10-28T04:54:01.055Z,85.8
2022-10-28T04:55:01.195Z,85.7
2022-10-28T04:56:00.373Z,85.7
2022-10-28T04:57:00.500Z,85.7
2022-10-28T04:58:00.652Z,85.6
2022-10-28T04:59:00.789Z,85.6
2022-10-28T05:00:00.935Z,85.7
2022-10-28T05:01:01.129Z,85.7
2022-10-28T05:02:01.335Z,85.7
2022-10-28T05:03:00.378Z,85.7
2022-10-28T05:04:00.519Z,85.7
2022-10-28T05:05:00.691Z,85.8
2022-10-28T05:06:00.855Z,86
2022-10-28T05:07:00.989Z,86.1
2022-10-28T05:08:01.124Z,86.2
2022-10-28T05:09:00.268Z,86.2
2022-10-28T05:10:00.410Z,86.2
2022-10-28T05:11:00.579Z,86.3
2022-10-28T05:12:00.692Z,86.3
2022-10-28T05:13:00.840Z,86.2
2022-10-28T05:14:00.996Z,86.2
2022-10-28T05:15:01.134Z,86.3
2022-10-28T05:16:00.297Z,86.1
2022-10-28T05:17:00.453Z,85.9
2022-10-28T05:18:00.575Z,85.7
2022-10-28T05:19:00.725Z,85.8
2022-10-28T05:20:00.865Z,85.8
2022-10-28T05:21:01.017Z,86
2022-10-28T05:22:01.171Z,86.2
2022-10-28T05:23:00.290Z,86.2
2022-10-28T05:24:00.441Z,86.4
2022-10-28T05:25:00.597Z,86.5
2022-10-28T05:26:00.749Z,86.5
2022-10-28T05:27:00.933Z,86.6
2022-10-28T05:28:01.035Z,86.6
2022-10-28T05:29:01.193Z,86.8
2022-10-28T05:30:00.329Z,86.9
2022-10-28T05:31:00.484Z,86.9
2022-10-28T05:32:00.702Z,86.9
2022-10-28T05:33:01.323Z,87.1
2022-10-28T05:34:00.963Z,87.1
2022-10-28T05:35:01.115Z,87.1
2022-10-28T05:36:01.247Z,87
2022-10-28T05:37:00.411Z,87.1
2022-10-28T05:38:00.542Z,87.2
2022-10-28T05:39:00.687Z,87.3
2022-10-28T05:40:00.837Z,87.4
2022-10-28T05:41:00.986Z,87.5
2022-10-28T05:42:01.157Z,87.5
2022-10-28T05:43:00.288Z,87.6
2022-10-28T05:44:00.430Z,87.5
2022-10-28T05:45:00.571Z,87.6
2022-10-28T05:46:00.723Z,87.6
2022-10-28T05:47:00.953Z,87.7
2022-10-28T05:48:01.050Z,87.7
2022-10-28T05:49:01.168Z,87.7
2022-10-28T05:50:00.310Z,87.9
2022-10-28T05:51:00.468Z,88.1
2022-10-28T05:52:00.618Z,88.2
2022-10-28T05:53:00.785Z,88
2022-10-28T05:54:00.907Z,88
2022-10-28T05:55:01.058Z,88
2022-10-28T05:56:01.198Z,88.3
2022-10-28T05:57:00.346Z,88.3
2022-10-28T05:58:00.511Z,88.3
2022-10-28T05:59:00.630Z,88.4
2022-10-28T06:00:00.780Z,88.4
2022-10-28T06:01:00.932Z,88.3
2022-10-28T06:02:01.091Z,88.2
2022-10-28T06:03:01.266Z,88.2
2022-10-28T06:04:00.443Z,88.2
2022-10-28T06:05:00.530Z,88.3
2022-10-28T06:06:00.691Z,88.3
2022-10-28T06:07:00.830Z,88.3
2022-10-28T06:08:00.977Z,88.4
2022-10-28T06:09:01.171Z,88.7
2022-10-28T06:10:00.285Z,88.9
2022-10-28T06:10:58.891Z,88.9
2022-10-28T06:11:59.060Z,89
2022-10-28T06:12:59.198Z,88.9
2022-10-28T06:13:59.383Z,88.9
2022-10-28T06:14:59.507Z,88.9
2022-10-28T06:15:59.664Z,88.8
2022-10-28T06:16:58.796Z,88.8
2022-10-28T06:17:58.945Z,88.7
2022-10-28T06:18:59.095Z,88.7
2022-10-28T06:19:59.261Z,88.6
2022-10-28T06:20:59.396Z,88.6
2022-10-28T06:21:59.688Z,88.5
2022-10-28T06:22:59.694Z,88.5
2022-10-28T06:23:58.846Z,88.4
2022-10-28T06:24:59.000Z,88.4
2022-10-28T06:25:59.245Z,88.4
2022-10-28T06:26:59.288Z,88.4
2022-10-28T06:27:59.431Z,88.3
2022-10-28T06:28:59.590Z,88.3
2022-10-28T06:29:58.742Z,88.3
2022-10-28T06:30:58.906Z,88.2
2022-10-28T06:31:59.070Z,88.1
2022-10-28T06:32:59.205Z,88
2022-10-28T06:33:59.341Z,88
2022-10-28T06:34:59.501Z,87.8
2022-10-28T06:35:59.652Z,87.7
2022-10-28T06:36:58.818Z,87.6
2022-10-28T06:37:58.945Z,87.6
2022-10-28T06:38:59.089Z,87.5
2022-10-28T06:39:59.246Z,87.5
2022-10-28T06:40:59.385Z,87.5
2022-10-28T06:41:59.550Z,87.6
2022-10-28T06:42:59.708Z,87.6
2022-10-28T06:43:58.829Z,87.5
2022-10-28T06:44:58.977Z,87.5
2022-10-28T06:45:59.117Z,87.4
2022-10-28T06:47:00.864Z,87.2
2022-10-28T06:48:00.944Z,86.9
2022-10-28T06:49:01.108Z,86.7
2022-10-28T06:50:01.248Z,86.5
2022-10-28T06:51:00.393Z,86.2
2022-10-28T06:52:00.537Z,86.1
2022-10-28T06:53:00.684Z,86
2022-10-28T06:54:00.856Z,85.9
2022-10-28T06:55:00.990Z,85.8
2022-10-28T06:56:01.123Z,85.7
2022-10-28T06:57:01.265Z,85.6
2022-10-28T06:58:00.423Z,85.5
2022-10-28T06:59:00.586Z,85.4
2022-10-28T07:00:00.753Z,85.3
2022-10-28T07:01:00.880Z,85.1
2022-10-28T07:02:01.220Z,85
2022-10-28T07:03:01.507Z,84.9
2022-10-28T07:04:00.315Z,84.8
2022-10-28T07:05:00.483Z,84.8
2022-10-28T07:06:00.654Z,84.8
2022-10-28T07:07:00.752Z,84.8
2022-10-28T07:08:00.891Z,84.8
2022-10-28T07:09:01.054Z,84.7
2022-10-28T07:10:01.206Z,84.6
2022-10-28T07:11:00.334Z,84.7
2022-10-28T07:12:04.933Z,84.6
2022-10-28T07:13:00.636Z,84.5
2022-10-28T07:14:00.794Z,84.5
2022-10-28T07:15:00.967Z,84.4
2022-10-28T07:16:01.094Z,84.4
2022-10-28T07:17:01.237Z,84.3
2022-10-28T07:18:00.384Z,84.3
2022-10-28T07:19:00.530Z,84.2
2022-10-28T07:20:00.699Z,84.2
2022-10-28T07:21:00.838Z,84.1
2022-10-28T07:22:00.966Z,84
2022-10-28T07:23:01.133Z,84
2022-10-28T07:24:01.272Z,83.9
2022-10-28T07:25:00.433Z,83.9
2022-10-28T07:26:00.589Z,83.9
2022-10-28T07:27:00.724Z,83.9
2022-10-28T07:28:00.872Z,83.9
2022-10-28T07:29:01.037Z,83.9
2022-10-28T07:30:01.201Z,83.9
2022-10-28T07:31:00.402Z,83.9
2022-10-28T07:32:00.461Z,83.9
2022-10-28T07:33:00.634Z,84
2022-10-28T07:34:00.774Z,83.9
2022-10-28T07:35:00.933Z,83.8
2022-10-28T07:36:01.061Z,83.8
2022-10-28T07:37:01.209Z,83.8
2022-10-28T07:38:00.351Z,83.6
2022-10-28T07:39:00.504Z,83.6
2022-10-28T07:40:00.665Z,83.6
2022-10-28T07:41:00.784Z,83.6
2022-10-28T07:42:00.933Z,83.5
2022-10-28T07:43:01.087Z,83.5
2022-10-28T07:44:01.219Z,83.4
2022-10-28T07:45:00.407Z,83.2
2022-10-28T07:46:00.520Z,83.2
2022-10-28T07:47:00.672Z,83
2022-10-28T07:48:00.811Z,83
2022-10-28T07:49:00.957Z,82.8
2022-10-28T07:50:03.606Z,82.8
2022-10-28T07:51:01.256Z,82.8
2022-10-28T07:52:00.389Z,82.8
2022-10-28T07:53:00.547Z,82.6
2022-10-28T07:54:00.695Z,82.4
2022-10-28T07:55:00.859Z,82.1
2022-10-28T07:56:00.987Z,82
2022-10-28T07:57:01.139Z,81.7
2022-10-28T07:58:01.291Z,81.6
2022-10-28T07:59:00.433Z,81.6
2022-10-28T08:00:00.594Z,81.3
2022-10-28T08:01:00.769Z,81.5
2022-10-28T08:02:00.971Z,81.3
2022-10-28T08:03:01.016Z,81.3
2022-10-28T08:04:01.176Z,81.2
2022-10-28T08:05:00.308Z,80.9
2022-10-28T08:06:00.450Z,80.9
2022-10-28T08:07:00.598Z,80.6
2022-10-28T08:08:00.740Z,80.6
2022-10-28T08:09:00.910Z,80.3
2022-10-28T08:10:01.036Z,80.3
2022-10-28T08:11:01.177Z,79.3
2022-10-28T08:12:00.324Z,79.3
2022-10-28T08:13:00.479Z,79.2
2022-10-28T08:14:00.634Z,79.4
2022-10-28T08:15:00.783Z,79.3
2022-10-28T08:16:00.916Z,79.4
2022-10-28T08:17:01.060Z,79.3
2022-10-28T08:18:01.200Z,78.9
2022-10-28T08:19:02.935Z,79.3
2022-10-28T08:20:00.507Z,79
2022-10-28T08:22:00.786Z,78.9
2022-10-28T08:23:03.950Z,78.7
2022-10-28T08:24:01.086Z,78.8
2022-10-28T08:25:01.272Z,78.8
2022-10-28T08:26:00.387Z,78.8
2022-10-28T08:27:00.518Z,78.2
2022-10-28T08:28:00.682Z,78.4
2022-10-28T08:29:00.858Z,78.5
2022-10-28T08:30:00.999Z,78.7
2022-10-28T08:31:08.230Z,78.5
2022-10-28T08:32:00.271Z,78.5
2022-10-28T08:33:00.418Z,78.1
2022-10-28T08:34:00.578Z,78
2022-10-28T08:35:00.743Z,78
2022-10-28T08:36:00.869Z,77.8
2022-10-28T08:37:01.083Z,77.9
2022-10-28T08:38:01.148Z,78.1
2022-10-28T08:39:00.290Z,77.7
2022-10-28T08:40:00.444Z,78
2022-10-28T08:41:00.599Z,78.1
2022-10-28T08:42:00.739Z,78.1
2022-10-28T08:43:00.899Z,78.2
2022-10-28T08:44:01.031Z,78.1
2022-10-28T08:45:01.174Z,78.4
2022-10-28T08:46:00.360Z,78.3
2022-10-28T08:47:00.468Z,78.4
2022-10-28T08:49:00.766Z,78.1
2022-10-28T08:50:00.912Z,78.5
2022-10-28T08:51:01.079Z,78.3
2022-10-28T08:52:01.217Z,78.5
2022-10-28T08:53:00.359Z,78.7
2022-10-28T08:54:00.496Z,78.1
2022-10-28T08:55:00.655Z,78.3
2022-10-28T08:56:00.823Z,78.1
2022-10-28T08:57:00.955Z,77.9
2022-10-28T08:58:01.108Z,77.8
2022-10-28T08:59:01.246Z,78.2
2022-10-28T09:00:00.393Z,78.2
2022-10-28T09:01:00.683Z,78.7
2022-10-28T09:02:00.691Z,78.4
2022-10-28T09:03:00.839Z,78.4
2022-10-28T09:04:00.981Z,78.6
2022-10-28T09:05:01.248Z,78.6
2022-10-28T09:06:00.290Z,78.7
2022-10-28T09:07:00.416Z,78.9
2022-10-28T09:08:00.569Z,78.7
2022-10-28T09:09:00.724Z,78.5
2022-10-28T09:10:00.865Z,78.6
2022-10-28T09:11:01.039Z,78.3
2022-10-28T09:12:01.163Z,78.4
2022-10-28T09:13:00.303Z,78.6
2022-10-28T09:14:00.473Z,78.2
2022-10-28T09:15:00.615Z,78.1
2022-10-28T09:16:00.781Z,78
2022-10-28T09:17:00.911Z,78.2
2022-10-28T09:18:01.059Z,78.4
2022-10-28T09:19:01.206Z,78.2
2022-10-28T09:20:00.347Z,78.2
2022-10-28T09:21:00.522Z,78.2
2022-10-28T09:22:00.655Z,78.2
2022-10-28T09:23:00.802Z,77.9
2022-10-28T09:24:00.950Z,78
2022-10-28T09:25:01.310Z,77.9
2022-10-28T09:26:01.274Z,77.5
2022-10-28T09:27:00.396Z,77.7
2022-10-28T09:28:00.547Z,77.9
2022-10-28T09:29:00.758Z,77.9
2022-10-28T09:30:00.852Z,77.6
2022-10-28T09:31:01.009Z,77.4
2022-10-28T09:32:01.163Z,77.6
2022-10-28T09:33:00.296Z,77.5
2022-10-28T09:34:00.436Z,77.1
2022-10-28T09:35:00.641Z,76.6
2022-10-28T09:36:00.743Z,76.1
2022-10-28T09:37:00.896Z,76.4
2022-10-28T09:38:01.043Z,76.9
2022-10-28T09:39:01.180Z,76.4
2022-10-28T09:40:00.344Z,76.5
2022-10-28T09:41:00.483Z,76.8
2022-10-28T09:42:00.632Z,76.6
2022-10-28T09:43:00.793Z,76.4
2022-10-28T09:44:00.931Z,76.4
2022-10-28T09:45:01.078Z,76.8
2022-10-28T09:46:01.229Z,76.5
2022-10-28T09:47:00.374Z,76.8
2022-10-28T09:48:00.539Z,76.8
2022-10-28T09:49:00.689Z,76.8
2022-10-28T09:50:00.820Z,76.6
2022-10-28T09:51:00.993Z,76.5
2022-10-28T09:52:01.128Z,76.6
2022-10-28T09:53:00.261Z,76.6
2022-10-28T09:54:00.424Z,76.5
2022-10-28T09:55:00.581Z,76.8
2022-10-28T09:56:00.766Z,76.9
2022-10-28T09:57:00.870Z,76.9
2022-10-28T09:58:01.004Z,76.8
2022-10-28T09:59:01.145Z,76.6
2022-10-28T10:00:00.301Z,76.7
2022-10-28T10:01:00.465Z,76.6
2022-10-28T10:02:00.747Z,77
2022-10-28T10:03:00.813Z,77.2
2022-10-28T10:04:00.887Z,77.4
2022-10-28T10:05:01.032Z,77.5
2022-10-28T10:06:01.209Z,77.3
2022-10-28T10:07:00.338Z,77.2
2022-10-28T10:08:00.483Z,77.2
2022-10-28T10:09:00.621Z,76.9
2022-10-28T10:10:00.805Z,76.8
2022-10-28T10:11:00.948Z,76.5
2022-10-28T10:12:01.063Z,76
2022-10-28T10:13:01.236Z,76.2
2022-10-28T10:14:00.378Z,75.9
2022-10-28T10:15:00.536Z,75.7
2022-10-28T10:16:00.698Z,75.4
2022-10-28T10:17:00.828Z,75.5
2022-10-28T10:18:00.978Z,75.5
2022-10-28T10:19:01.133Z,75
2022-10-28T10:20:00.278Z,74.9
2022-10-28T10:21:00.441Z,75.2
2022-10-28T10:22:00.564Z,75
2022-10-28T10:23:00.728Z,75
2022-10-28T10:24:00.870Z,75.4
2022-10-28T10:25:01.030Z,75.4
2022-10-28T10:26:01.187Z,75.1
2022-10-28T10:27:00.304Z,75.4
2022-10-28T10:28:00.456Z,74.6
2022-10-28T10:29:00.606Z,74.7
2022-10-28T10:30:00.752Z,74.3
2022-10-28T10:31:00.920Z,73.9
2022-10-28T10:32:01.050Z,73.8
2022-10-28T10:33:01.191Z,73.3
2022-10-28T10:34:00.344Z,73.6
2022-10-28T10:35:00.484Z,74.1
2022-10-28T10:36:00.662Z,74.1
2022-10-28T10:37:00.844Z,74.5
2022-10-28T10:38:00.937Z,74.9
2022-10-28T10:39:01.103Z,74.7
2022-10-28T10:40:01.238Z,74.3
2022-10-28T10:41:00.418Z,74.3
2022-10-28T10:42:00.564Z,74.3
2022-10-28T10:43:12.757Z,74.6
2022-10-28T10:44:00.880Z,74.8
2022-10-28T10:45:01.001Z,75
2022-10-28T10:46:01.157Z,74.4
2022-10-28T10:47:05.095Z,74.1
2022-10-28T10:48:00.446Z,74.3
2022-10-28T10:49:00.586Z,74.1
2022-10-28T10:50:00.720Z,74.3
2022-10-28T10:51:00.869Z,74.8
2022-10-28T10:52:01.063Z,74.9
2022-10-28T10:53:01.180Z,74.9
2022-10-28T10:54:00.335Z,74.9
2022-10-28T10:55:00.504Z,74.4
2022-10-28T10:56:00.649Z,74.6
2022-10-28T10:57:00.793Z,74.9
2022-10-28T10:58:00.922Z,75.3
2022-10-28T10:59:01.069Z,75.4
2022-10-28T11:00:01.221Z,75.4
2022-10-28T11:01:00.384Z,75.4
2022-10-28T11:02:00.693Z,75.7
2022-10-28T11:03:00.746Z,75.6
2022-10-28T11:04:00.869Z,75.4
2022-10-28T11:05:00.969Z,75.2
2022-10-28T11:06:22.594Z,75.4
2022-10-28T11:07:01.261Z,75.3
2022-10-28T11:08:00.427Z,75.2
2022-10-28T11:09:00.623Z,75.1
2022-10-28T11:10:00.698Z,74.7
2022-10-28T11:11:00.859Z,74.5
2022-10-28T11:12:00.995Z,74.3
2022-10-28T11:13:01.172Z,73.8
2022-10-28T11:14:00.290Z,74.1
2022-10-28T11:15:00.434Z,73.9
2022-10-28T11:16:00.583Z,74.1
2022-10-28T11:17:00.731Z,74.1
2022-10-28T11:18:00.890Z,73.7
2022-10-28T11:19:01.020Z,73.8
2022-10-28T11:20:01.173Z,74
2022-10-28T11:21:00.316Z,73.4
2022-10-28T11:22:00.451Z,73.9
2022-10-28T11:23:00.624Z,73.7
2022-10-28T11:24:00.751Z,73.6
2022-10-28T11:25:00.910Z,73.8
2022-10-28T11:26:01.075Z,73.6
2022-10-28T11:27:01.192Z,73.3
2022-10-28T11:28:04.054Z,73.3
2022-10-28T11:29:00.501Z,73.1
2022-10-28T11:30:00.654Z,72.9
2022-10-28T11:31:00.872Z,73
2022-10-28T11:32:00.959Z,73.1
2022-10-28T11:33:02.155Z,73.2
2022-10-28T11:34:01.249Z,72.6
2022-10-28T11:35:00.391Z,72.5
2022-10-28T11:36:00.565Z,72
2022-10-28T11:37:00.680Z,71.8
2022-10-28T11:38:00.835Z,71.9
2022-10-28T11:39:00.982Z,70.9
2022-10-28T11:40:01.128Z,71.4
2022-10-28T11:41:00.309Z,70.9
2022-10-28T11:42:00.426Z,71.4
2022-10-28T11:43:00.575Z,71.3
2022-10-28T11:44:05.024Z,71
2022-10-28T11:45:00.860Z,70.5
2022-10-28T11:46:01.026Z,70.7
2022-10-28T11:47:04.177Z,70.8
2022-10-28T11:48:00.310Z,70.2
2022-10-28T11:49:00.460Z,70.4
2022-10-28T11:50:00.611Z,70.4
2022-10-28T11:51:00.753Z,70.5
2022-10-28T11:52:00.903Z,70.4
2022-10-28T11:53:01.046Z,70.1
2022-10-28T11:54:01.190Z,69.8
2022-10-28T11:55:00.362Z,69.8
2022-10-28T11:56:00.494Z,70.2
2022-10-28T11:57:00.634Z,69.4
2022-10-28T11:58:00.836Z,69.2
2022-10-28T11:59:00.933Z,68.7
2022-10-28T12:00:01.115Z,69.1
2022-10-28T12:01:01.244Z,69.7
2022-10-28T12:02:00.584Z,69.5
2022-10-28T12:03:01.114Z,69.4
2022-10-28T12:04:00.692Z,69.9
2022-10-28T12:05:00.863Z,69.8
2022-10-28T12:06:00.988Z,69.7
2022-10-28T12:07:01.150Z,68.8
2022-10-28T12:08:00.291Z,68.9
2022-10-28T12:09:00.523Z,69.1
2022-10-28T12:10:00.600Z,69.9
2022-10-28T12:11:00.749Z,68.5
2022-10-28T12:12:00.886Z,68.5
2022-10-28T12:13:01.051Z,68.4
2022-10-28T12:15:00.404Z,69.3
2022-10-28T12:16:00.492Z,69.7
2022-10-28T12:17:00.635Z,68.9
2022-10-28T12:18:00.781Z,68.9
2022-10-28T12:19:00.957Z,69.3
2022-10-28T12:20:01.090Z,69.2
2022-10-28T12:21:01.291Z,69
2022-10-28T12:22:00.373Z,68.4
2022-10-28T12:23:00.545Z,69.2
2022-10-28T12:24:00.708Z,69.1
2022-10-28T12:25:00.891Z,68.2
2022-10-28T12:26:00.989Z,68
2022-10-28T12:27:01.125Z,68.4
2022-10-28T12:28:00.347Z,68.1
2022-10-28T12:29:00.445Z,68.8
2022-10-28T12:30:00.581Z,69
2022-10-28T12:31:00.732Z,68.6
2022-10-28T12:32:00.879Z,68.7
2022-10-28T12:33:01.025Z,69.2
2022-10-28T12:34:01.202Z,69.5
2022-10-28T12:35:00.336Z,69.4
2022-10-28T12:36:00.465Z,69.8
2022-10-28T12:37:00.627Z,69.9
2022-10-28T12:38:00.786Z,69.8
2022-10-28T12:39:00.950Z,70.3
2022-10-28T12:40:01.082Z,70.3
2022-10-28T12:41:01.210Z,70.2
2022-10-28T12:42:00.369Z,70.6
2022-10-28T12:43:00.515Z,70.8
2022-10-28T12:44:00.688Z,70.8
2022-10-28T12:45:00.850Z,71
2022-10-28T12:46:00.977Z,70.7
2022-10-28T12:47:01.124Z,70.8
2022-10-28T12:48:00.719Z,70.8
2022-10-28T12:49:00.430Z,71
2022-10-28T12:50:00.582Z,71.2
2022-10-28T12:51:00.741Z,71.4
2022-10-28T12:52:00.863Z,71.3
2022-10-28T12:53:01.013Z,71.8
2022-10-28T12:54:01.156Z,71.8
2022-10-28T12:55:00.406Z,72.1
2022-10-28T12:56:00.528Z,71.6
2022-10-28T12:57:00.600Z,71.7
2022-10-28T12:58:00.751Z,71.3
2022-10-28T12:59:00.993Z,71.4
2022-10-28T13:00:01.057Z,71.1
2022-10-28T13:01:01.316Z,70.7
2022-10-28T13:02:00.447Z,70.8
2022-10-28T13:03:00.483Z,70.2
2022-10-28T13:04:00.640Z,70.6
2022-10-28T13:05:00.782Z,70.4
2022-10-28T13:06:00.963Z,70.8
2022-10-28T13:07:01.079Z,71.1
2022-10-28T13:08:01.592Z,71.1
2022-10-28T13:09:00.376Z,70.8
2022-10-28T13:10:00.508Z,70.4
2022-10-28T13:11:00.667Z,70.2
2022-10-28T13:12:00.805Z,70.8
2022-10-28T13:13:00.950Z,70.7
2022-10-28T13:14:01.173Z,70.8
2022-10-28T13:15:01.301Z,71
2022-10-28T13:16:00.391Z,70.9
2022-10-28T13:17:00.537Z,70.8
2022-10-28T13:18:00.682Z,70.8
2022-10-28T13:19:00.837Z,70.7
2022-10-28T13:20:01.019Z,70.9
2022-10-28T13:21:01.145Z,70.9
2022-10-28T13:22:00.285Z,70.8
2022-10-28T13:23:00.421Z,71
2022-10-28T13:24:00.563Z,70.7
2022-10-28T13:25:00.744Z,71.1
2022-10-28T13:26:00.895Z,71
2022-10-28T13:27:01.075Z,71